createdAt,value
2023-05-19T00:01:49.336Z,3.30
2023-05-19T00:04:17.837Z,3.60
2023-05-19T00:06:52.028Z,3.67
2023-05-19T00:09:20.252Z,3.23
2023-05-19T00:11:48.119Z,3.60
2023-05-19T00:14:16.187Z,3.35
2023-05-19T00:16:46.024Z,3.47
2023-05-19T00:19:13.746Z,3.67
2023-05-19T00:21:41.522Z,3.43
2023-05-19T00:24:09.320Z,3.50
2023-05-19T00:26:37.162Z,3.70
2023-05-19T00:29:04.970Z,3.78
2023-05-19T00:31:34.068Z,3.80
2023-05-19T00:34:03.470Z,3.77
2023-05-19T00:36:31.200Z,3.43
2023-05-19T00:38:58.916Z,3.43
2023-05-19T00:41:27.235Z,3.97
2023-05-19T00:43:55.203Z,3.65
2023-05-19T00:46:23.088Z,3.20
2023-05-19T00:48:50.901Z,3.50
2023-05-19T00:51:20.042Z,3.33
2023-05-19T00:53:51.070Z,3.77
2023-05-19T00:56:20.037Z,3.30
2023-05-19T00:58:48.226Z,3.40
2023-05-19T01:01:17.316Z,3.70
2023-05-19T01:03:47.226Z,3.30
2023-05-19T01:06:15.052Z,3.27
2023-05-19T01:08:44.114Z,3.60
2023-05-19T01:11:11.767Z,3.97
2023-05-19T01:13:41.964Z,3.10
2023-05-19T01:16:15.268Z,3.33
2023-05-19T01:18:56.159Z,4.23
2023-05-19T01:21:44.320Z,4.53
2023-05-19T01:24:35.397Z,3.60
2023-05-19T01:27:19.949Z,3.57
2023-05-19T01:30:12.119Z,3.50
2023-05-19T01:32:42.484Z,4.37
2023-05-19T01:35:13.721Z,3.90
2023-05-19T01:37:42.531Z,3.70
2023-05-19T01:42:40.040Z,3.63
2023-05-19T01:45:10.519Z,3.67
2023-05-19T01:47:42.237Z,3.70
2023-05-19T01:50:11.221Z,4.23
2023-05-19T01:52:38.990Z,3.97
2023-05-19T01:55:07.913Z,4.13
2023-05-19T01:57:46.640Z,4.30
2023-05-19T02:00:21.376Z,3.70
2023-05-19T02:02:59.267Z,4.40
2023-05-19T02:05:36.070Z,4.15
2023-05-19T02:08:12.832Z,4.13
2023-05-19T02:10:48.502Z,3.70
2023-05-19T02:13:21.308Z,3.90
2023-05-19T02:15:50.853Z,4.13
2023-05-19T02:18:20.473Z,4.07
2023-05-19T02:20:48.584Z,4.07
2023-05-19T02:23:16.374Z,4.55
2023-05-19T02:25:44.330Z,4.10
2023-05-19T02:28:12.013Z,3.78
2023-05-19T02:30:39.939Z,4.20
2023-05-19T02:33:07.776Z,3.80
2023-05-19T02:35:36.990Z,4.03
2023-05-19T02:38:04.746Z,4.03
2023-05-19T02:40:32.990Z,4.37
2023-05-19T02:43:01.674Z,4.00
2023-05-19T02:45:29.406Z,3.92
2023-05-19T02:47:57.328Z,3.77
2023-05-19T02:50:25.135Z,4.38
2023-05-19T02:52:54.549Z,5.07
2023-05-19T02:55:22.297Z,4.27
2023-05-19T02:57:50.012Z,4.23
2023-05-19T03:00:17.920Z,4.30
2023-05-19T03:02:45.963Z,4.40
2023-05-19T03:05:14.274Z,4.53
2023-05-19T03:07:42.103Z,4.05
2023-05-19T03:10:11.763Z,4.33
2023-05-19T03:12:39.488Z,4.13
2023-05-19T03:15:08.631Z,4.77
2023-05-19T03:17:36.522Z,4.97
2023-05-19T03:20:06.245Z,5.32
2023-05-19T03:22:34.224Z,5.23
2023-05-19T03:25:02.496Z,4.32
2023-05-19T03:27:31.875Z,5.07
2023-05-19T03:29:59.561Z,4.47
2023-05-19T03:32:27.473Z,5.33
2023-05-19T03:34:55.375Z,4.85
2023-05-19T03:37:23.062Z,5.13
2023-05-19T03:39:50.851Z,4.50
2023-05-19T03:42:18.588Z,6.27
2023-05-19T03:44:47.620Z,4.80
2023-05-19T03:47:16.578Z,5.13
2023-05-19T03:49:44.360Z,5.37
2023-05-19T03:52:13.029Z,4.60
2023-05-19T03:54:42.626Z,5.13
2023-05-19T03:57:11.003Z,4.77
2023-05-19T03:59:38.685Z,4.75
2023-05-19T04:02:08.415Z,4.67
2023-05-19T04:04:37.374Z,5.20
2023-05-19T04:07:05.306Z,5.47
2023-05-19T04:09:35.229Z,5.38
2023-05-19T04:12:03.646Z,4.87
2023-05-19T04:14:31.402Z,5.55
2023-05-19T04:16:59.870Z,5.37
2023-05-19T04:19:29.164Z,5.45
2023-05-19T04:21:56.968Z,5.97
2023-05-19T04:24:24.680Z,5.33
2023-05-19T04:26:53.265Z,4.77
2023-05-19T04:29:20.990Z,5.43
2023-05-19T04:31:49.052Z,6.57
2023-05-19T04:34:19.756Z,6.57
2023-05-19T04:36:50.953Z,6.53
2023-05-19T04:39:21.478Z,6.77
2023-05-19T04:41:49.232Z,6.27
2023-05-19T04:44:18.040Z,5.77
2023-05-19T04:49:14.436Z,6.07
2023-05-19T04:51:42.560Z,6.82
2023-05-19T04:54:11.719Z,6.28
2023-05-19T04:56:39.513Z,5.93
2023-05-19T04:59:07.321Z,6.50
2023-05-19T05:01:35.455Z,6.63
2023-05-19T05:04:03.593Z,6.65
2023-05-19T05:06:31.817Z,6.72
2023-05-19T05:09:00.001Z,7.45
2023-05-19T05:11:29.672Z,7.93
2023-05-19T05:13:58.155Z,7.17
2023-05-19T05:16:26.929Z,7.43
2023-05-19T05:18:55.194Z,8.57
2023-05-19T05:21:23.816Z,7.95
2023-05-19T05:23:52.404Z,8.40
2023-05-19T05:26:23.285Z,8.27
2023-05-19T05:28:52.531Z,7.50
2023-05-19T05:31:20.236Z,8.03
2023-05-19T05:33:47.994Z,8.40
2023-05-19T05:36:15.734Z,8.97
2023-05-19T05:38:43.460Z,7.10
2023-05-19T05:41:11.221Z,8.77
2023-05-19T05:43:38.885Z,9.03
2023-05-19T05:46:08.138Z,9.57
2023-05-19T05:48:36.717Z,9.53
2023-05-19T05:51:05.288Z,9.32
2023-05-19T05:53:38.096Z,9.25
2023-05-19T05:56:06.702Z,8.63
2023-05-19T05:58:37.235Z,9.10
2023-05-19T06:01:05.730Z,8.07
2023-05-19T06:03:34.910Z,8.60
2023-05-19T06:06:02.761Z,8.47
2023-05-19T06:08:30.568Z,7.97
2023-05-19T06:10:59.039Z,8.87
2023-05-19T06:13:26.932Z,8.63
2023-05-19T06:15:54.808Z,8.38
2023-05-19T06:18:22.673Z,8.05
2023-05-19T06:20:51.820Z,7.93
2023-05-19T06:23:19.574Z,8.43
2023-05-19T06:25:47.461Z,7.83
2023-05-19T06:28:15.150Z,7.72
2023-05-19T06:30:42.875Z,7.77
2023-05-19T06:33:10.896Z,7.67
2023-05-19T06:35:38.711Z,7.85
2023-05-19T06:38:07.817Z,7.40
2023-05-19T06:40:36.081Z,7.07
2023-05-19T06:43:05.033Z,7.15
2023-05-19T06:45:32.968Z,6.07
2023-05-19T06:48:00.964Z,6.25
2023-05-19T06:50:28.828Z,6.20
2023-05-19T06:52:57.308Z,6.28
2023-05-19T06:55:26.758Z,6.22
2023-05-19T06:57:54.537Z,5.70
2023-05-19T07:00:24.032Z,5.55
2023-05-19T07:02:52.175Z,6.10
2023-05-19T07:05:20.506Z,5.45
2023-05-19T07:07:48.186Z,5.10
2023-05-19T07:10:15.927Z,5.00
2023-05-19T07:12:45.327Z,5.43
2023-05-19T07:15:13.035Z,5.57
2023-05-19T07:17:40.852Z,5.18
2023-05-19T07:20:10.121Z,5.80
2023-05-19T07:22:39.615Z,5.23
2023-05-19T07:25:08.353Z,4.93
2023-05-19T07:27:36.683Z,5.43
2023-05-19T07:30:06.662Z,4.75
2023-05-19T07:32:34.539Z,4.80
2023-05-19T07:35:02.351Z,4.53
2023-05-19T07:37:30.098Z,4.95
2023-05-19T07:39:57.952Z,4.45
2023-05-19T07:42:25.773Z,4.55
2023-05-19T07:44:53.512Z,4.38
2023-05-19T07:47:22.596Z,5.32
2023-05-19T07:49:51.856Z,4.30
2023-05-19T07:52:19.876Z,4.20
2023-05-19T07:54:47.591Z,4.80
2023-05-19T07:57:15.998Z,5.00
2023-05-19T07:59:43.700Z,4.22
2023-05-19T08:02:11.454Z,3.77
2023-05-19T08:04:40.720Z,3.90
2023-05-19T08:07:08.676Z,3.90
2023-05-19T08:09:36.647Z,3.63
2023-05-19T08:12:05.306Z,3.92
2023-05-19T08:14:33.854Z,3.50
2023-05-19T08:17:01.602Z,3.15
2023-05-19T08:19:29.349Z,3.13
2023-05-19T08:22:01.142Z,3.67
2023-05-19T08:24:30.201Z,2.80
2023-05-19T08:26:57.917Z,3.23
2023-05-19T08:29:25.915Z,3.35
2023-05-19T08:31:54.188Z,3.63
2023-05-19T08:34:22.279Z,2.70
2023-05-19T08:36:50.100Z,2.80
2023-05-19T08:39:24.141Z,2.70
2023-05-19T08:41:51.907Z,2.60
2023-05-19T08:44:19.823Z,2.55
2023-05-19T08:46:48.657Z,2.70
2023-05-19T08:49:25.587Z,2.80
2023-05-19T08:52:07.302Z,2.67
2023-05-19T08:54:46.915Z,2.50
2023-05-19T08:57:15.330Z,2.90
2023-05-19T08:59:44.431Z,2.30
2023-05-19T09:02:14.294Z,2.55
2023-05-19T09:04:45.813Z,2.42
2023-05-19T09:07:15.263Z,2.95
2023-05-19T09:09:44.608Z,2.65
2023-05-19T09:12:12.629Z,2.83
2023-05-19T09:14:40.657Z,3.20
2023-05-19T09:17:08.618Z,2.78
2023-05-19T09:19:36.478Z,2.88
2023-05-19T09:22:04.690Z,2.63
2023-05-19T09:24:34.858Z,3.35
2023-05-19T09:27:03.995Z,2.65
2023-05-19T09:29:31.732Z,2.85
2023-05-19T09:32:01.073Z,3.00
2023-05-19T09:34:28.974Z,2.90
2023-05-19T09:36:58.065Z,3.00
2023-05-19T09:39:26.155Z,2.85
2023-05-19T09:41:54.674Z,2.75
2023-05-19T09:44:30.285Z,2.55
2023-05-19T09:46:58.508Z,2.67
2023-05-19T09:49:29.585Z,2.97
2023-05-19T09:51:58.060Z,2.40
2023-05-19T09:54:27.576Z,2.60
2023-05-19T09:56:59.847Z,2.47
2023-05-19T09:59:32.085Z,2.90
2023-05-19T10:02:02.518Z,2.47
2023-05-19T10:04:32.437Z,2.22
2023-05-19T10:07:01.552Z,2.30
2023-05-19T10:09:30.589Z,2.50
2023-05-19T10:11:59.235Z,3.10
2023-05-19T10:14:29.555Z,2.70
2023-05-19T10:16:58.562Z,2.65
2023-05-19T10:19:27.923Z,2.50
2023-05-19T10:21:56.636Z,2.72
2023-05-19T10:24:24.529Z,2.80
2023-05-19T10:26:56.393Z,2.38
2023-05-19T10:29:28.426Z,2.28
2023-05-19T10:32:00.649Z,2.25
2023-05-19T10:34:50.707Z,2.53
2023-05-19T10:37:31.253Z,2.22
2023-05-19T10:39:59.964Z,2.35
2023-05-19T10:42:45.947Z,2.40
2023-05-19T10:45:18.745Z,2.33
2023-05-19T10:47:48.117Z,2.60
2023-05-19T10:50:17.441Z,2.33
2023-05-19T10:52:45.635Z,2.30
2023-05-19T10:55:15.805Z,2.15
2023-05-19T10:57:56.731Z,2.45
2023-05-19T11:00:32.482Z,2.08
2023-05-19T11:03:15.136Z,2.20
2023-05-19T11:05:45.258Z,2.67
2023-05-19T11:08:13.987Z,2.10
2023-05-19T11:10:45.165Z,2.70
2023-05-19T11:13:22.983Z,2.10
2023-05-19T11:15:51.035Z,2.13
2023-05-19T11:18:20.534Z,2.17
2023-05-19T11:20:58.000Z,2.33
2023-05-19T11:23:27.074Z,2.55
2023-05-19T11:25:54.918Z,2.42
2023-05-19T11:28:26.027Z,2.58
2023-05-19T11:30:57.754Z,2.05
2023-05-19T11:33:27.807Z,2.13
2023-05-19T11:35:58.151Z,2.20
2023-05-19T11:38:26.322Z,2.20
2023-05-19T11:40:55.125Z,2.33
2023-05-19T11:43:24.561Z,2.30
2023-05-19T11:45:52.728Z,2.50
2023-05-19T11:48:22.225Z,2.33
2023-05-19T11:50:52.518Z,2.40
2023-05-19T11:53:21.051Z,1.95
2023-05-19T11:55:50.149Z,2.45
2023-05-19T11:58:18.156Z,2.72
2023-05-19T12:00:47.691Z,2.28
2023-05-19T12:03:17.407Z,2.58
2023-05-19T12:05:47.568Z,2.58
2023-05-19T12:08:18.320Z,2.72
2023-05-19T12:10:49.339Z,2.10
2023-05-19T12:13:17.134Z,2.60
2023-05-19T12:15:44.994Z,2.97
2023-05-19T12:18:12.832Z,2.75
2023-05-19T12:20:40.714Z,2.80
2023-05-19T12:23:08.528Z,2.60
2023-05-19T12:25:38.336Z,2.75
2023-05-19T12:28:06.502Z,2.40
2023-05-19T12:30:35.351Z,2.42
2023-05-19T12:33:04.238Z,2.50
2023-05-19T12:35:34.174Z,2.50
2023-05-19T12:38:05.012Z,2.20
2023-05-19T12:40:34.364Z,2.70
2023-05-19T12:43:04.003Z,2.30
2023-05-19T12:45:35.573Z,2.75
2023-05-19T12:48:05.292Z,2.30
2023-05-19T12:50:34.568Z,3.00
2023-05-19T12:53:02.635Z,2.70
2023-05-19T12:55:31.076Z,2.28
2023-05-19T12:57:59.142Z,2.88
2023-05-19T13:03:01.388Z,2.50
2023-05-19T13:05:31.199Z,2.55
2023-05-19T13:08:00.405Z,2.40
2023-05-19T13:10:29.016Z,2.25
2023-05-19T13:12:57.598Z,2.40
2023-05-19T13:15:27.232Z,2.05
2023-05-19T13:17:56.534Z,2.10
2023-05-19T13:20:27.647Z,2.40
2023-05-19T13:22:57.430Z,2.30
2023-05-19T13:25:25.443Z,2.20
2023-05-19T13:30:21.125Z,2.13
2023-05-19T13:32:49.179Z,2.20
2023-05-19T13:35:18.323Z,2.50
2023-05-19T13:37:46.382Z,2.35
2023-05-19T13:40:15.711Z,2.25
2023-05-19T13:42:43.402Z,2.13
2023-05-19T13:45:11.763Z,2.33
2023-05-19T13:47:39.892Z,2.45
2023-05-19T13:50:08.568Z,2.10
2023-05-19T13:52:37.756Z,2.30
2023-05-19T13:55:07.922Z,2.20
2023-05-19T13:57:35.608Z,2.20
2023-05-19T14:00:04.639Z,2.10
2023-05-19T14:02:34.492Z,2.15
2023-05-19T14:05:02.773Z,2.20
2023-05-19T14:07:30.600Z,2.10
2023-05-19T14:09:59.757Z,1.95
2023-05-19T14:12:35.376Z,2.00
2023-05-19T14:15:09.148Z,1.80
2023-05-19T14:17:37.733Z,2.10
2023-05-19T14:20:07.448Z,2.03
2023-05-19T14:22:35.381Z,1.95
2023-05-19T14:27:32.207Z,2.03
2023-05-19T14:29:59.944Z,2.22
2023-05-19T14:32:30.256Z,1.98
2023-05-19T14:34:58.593Z,2.35
2023-05-19T14:39:58.323Z,2.05
2023-05-19T14:42:27.412Z,2.30
2023-05-19T14:44:55.179Z,2.25
2023-05-19T14:47:22.928Z,2.30
2023-05-19T14:49:50.830Z,2.35
2023-05-19T14:52:18.880Z,2.28
2023-05-19T14:57:14.270Z,2.30
2023-05-19T14:59:43.616Z,2.05
2023-05-19T15:02:12.693Z,2.05
2023-05-19T15:04:40.374Z,2.45
2023-05-19T15:07:10.642Z,1.85
2023-05-19T15:09:39.115Z,1.90
2023-05-19T15:12:07.240Z,1.65
2023-05-19T15:17:04.068Z,2.10
2023-05-19T15:19:31.869Z,2.03
2023-05-19T15:21:59.603Z,2.17
2023-05-19T15:24:27.943Z,2.22
2023-05-19T15:26:56.216Z,2.70
2023-05-19T15:29:23.966Z,2.00
2023-05-19T15:31:52.403Z,2.40
2023-05-19T15:34:21.967Z,2.17
2023-05-19T15:36:49.727Z,2.05
2023-05-19T15:39:17.475Z,2.08
2023-05-19T15:41:45.309Z,1.90
2023-05-19T15:44:13.250Z,1.90
2023-05-19T15:46:41.156Z,2.50
2023-05-19T15:49:09.130Z,1.98
2023-05-19T15:51:41.849Z,2.20
2023-05-19T15:54:09.608Z,2.10
2023-05-19T15:56:37.387Z,2.10
2023-05-19T15:59:05.091Z,2.22
2023-05-19T16:01:33.307Z,2.20
2023-05-19T16:06:32.171Z,2.15
2023-05-19T16:09:01.379Z,2.13
2023-05-19T16:11:29.251Z,2.28
2023-05-19T16:13:57.010Z,2.38
2023-05-19T16:16:24.711Z,2.13
2023-05-19T16:18:52.531Z,2.30
2023-05-19T16:21:21.383Z,2.22
2023-05-19T16:23:49.183Z,2.20
2023-05-19T16:26:18.313Z,2.10
2023-05-19T16:28:46.138Z,2.10
2023-05-19T16:31:13.871Z,2.20
2023-05-19T16:33:41.620Z,2.30
2023-05-19T16:36:09.433Z,2.00
2023-05-19T16:38:37.181Z,2.92
2023-05-19T16:41:05.329Z,2.15
2023-05-19T16:43:34.524Z,2.20
2023-05-19T16:46:03.498Z,2.08
2023-05-19T16:48:31.432Z,1.83
2023-05-19T16:50:59.485Z,2.00
2023-05-19T16:53:27.296Z,2.15
2023-05-19T16:55:55.034Z,2.40
2023-05-19T16:58:22.757Z,2.40
2023-05-19T17:00:53.945Z,2.38
2023-05-19T17:03:21.896Z,2.30
2023-05-19T17:05:49.899Z,2.20
2023-05-19T17:08:17.705Z,2.75
2023-05-19T17:10:45.888Z,2.35
2023-05-19T17:13:13.696Z,2.65
2023-05-19T17:15:43.207Z,3.05
2023-05-19T17:18:13.196Z,2.38
2023-05-19T17:20:41.560Z,2.97
2023-05-19T17:23:09.396Z,2.72
2023-05-19T17:25:37.311Z,2.90
2023-05-19T17:28:05.529Z,3.17
2023-05-19T17:30:34.635Z,2.78
2023-05-19T17:33:02.550Z,3.08
2023-05-19T17:35:31.672Z,3.05
2023-05-19T17:38:00.622Z,2.70
2023-05-19T17:40:28.545Z,3.45
2023-05-19T17:42:56.341Z,3.50
2023-05-19T17:45:24.123Z,3.20
2023-05-19T17:47:51.941Z,3.47
2023-05-19T17:50:19.814Z,3.20
2023-05-19T17:52:49.465Z,3.15
2023-05-19T17:55:17.817Z,3.50
2023-05-19T17:57:47.254Z,3.42
2023-05-19T18:00:16.293Z,3.67
2023-05-19T18:02:44.931Z,3.13
2023-05-19T18:05:13.880Z,3.30
2023-05-19T18:07:43.522Z,4.33
2023-05-19T18:10:16.119Z,3.73
2023-05-19T18:12:44.042Z,4.07
2023-05-19T18:15:12.772Z,3.50
2023-05-19T18:17:40.544Z,3.43
2023-05-19T18:20:09.432Z,3.33
2023-05-19T18:22:37.139Z,3.27
2023-05-19T18:25:05.499Z,3.60
2023-05-19T18:27:34.663Z,3.92
2023-05-19T18:30:02.379Z,3.50
2023-05-19T18:32:30.050Z,3.90
2023-05-19T18:34:58.088Z,3.97
2023-05-19T18:37:25.878Z,3.10
2023-05-19T18:39:53.846Z,3.25
2023-05-19T18:42:22.338Z,3.95
2023-05-19T18:44:51.748Z,5.53
2023-05-19T18:47:19.981Z,3.63
2023-05-19T18:49:47.701Z,4.18
2023-05-19T18:52:15.666Z,3.80
2023-05-19T18:54:45.911Z,3.85
2023-05-19T18:57:14.631Z,3.70
2023-05-19T18:59:42.347Z,3.70
2023-05-19T19:02:11.458Z,3.50
2023-05-19T19:04:39.386Z,3.70
2023-05-19T19:07:07.223Z,3.90
2023-05-19T19:09:35.713Z,3.60
2023-05-19T19:12:03.528Z,3.08
2023-05-19T19:14:31.706Z,3.80
2023-05-19T19:16:59.547Z,3.45
2023-05-19T19:19:30.517Z,3.10
2023-05-19T19:21:58.364Z,2.67
2023-05-19T19:24:26.702Z,3.50
2023-05-19T19:26:54.403Z,3.55
2023-05-19T19:29:22.306Z,3.20
2023-05-19T19:31:50.135Z,3.35
2023-05-19T19:34:19.874Z,2.95
2023-05-19T19:36:49.633Z,3.17
2023-05-19T19:39:17.386Z,3.80
2023-05-19T19:41:45.284Z,3.35
2023-05-19T19:44:13.533Z,3.80
2023-05-19T19:46:41.372Z,3.63
2023-05-19T19:49:09.252Z,3.47
2023-05-19T19:51:36.945Z,3.85
2023-05-19T19:54:06.257Z,3.65
2023-05-19T19:56:34.064Z,2.93
2023-05-19T19:59:01.856Z,2.97
2023-05-19T20:01:29.768Z,3.40
2023-05-19T20:03:58.083Z,3.13
2023-05-19T20:06:26.023Z,3.10
2023-05-19T20:08:53.931Z,4.50
2023-05-19T20:11:24.542Z,3.70
2023-05-19T20:13:52.957Z,4.20
2023-05-19T20:16:20.804Z,3.53
2023-05-19T20:18:48.750Z,3.95
2023-05-19T20:21:16.625Z,3.58
2023-05-19T20:23:44.407Z,3.97
2023-05-19T20:26:13.383Z,3.30
2023-05-19T20:28:43.296Z,4.03
2023-05-19T20:31:11.256Z,3.33
2023-05-19T20:33:39.175Z,3.25
2023-05-19T20:36:08.084Z,3.33
2023-05-19T20:38:35.880Z,3.80
2023-05-19T20:41:03.905Z,3.45
2023-05-19T20:43:33.213Z,2.85
2023-05-19T20:46:03.800Z,3.47
2023-05-19T20:48:31.825Z,3.03
2023-05-19T20:50:59.668Z,3.50
2023-05-19T20:53:27.649Z,3.03
2023-05-19T20:55:55.683Z,3.15
2023-05-19T20:58:26.653Z,3.90
2023-05-19T21:00:57.830Z,3.50
2023-05-19T21:03:28.621Z,3.00
2023-05-19T21:05:56.743Z,2.90
2023-05-19T21:08:25.662Z,3.30
2023-05-19T21:10:53.495Z,3.37
2023-05-19T21:13:21.352Z,2.70
2023-05-19T21:15:49.492Z,3.08
2023-05-19T21:18:17.198Z,3.50
2023-05-19T21:20:46.341Z,3.13
2023-05-19T21:23:14.237Z,3.10
2023-05-19T21:25:44.568Z,2.97
2023-05-19T21:28:13.356Z,3.03
2023-05-19T21:30:41.595Z,3.33
2023-05-19T21:33:09.687Z,2.80
2023-05-19T21:35:37.976Z,2.90
2023-05-19T21:38:22.180Z,2.95
2023-05-19T21:40:51.461Z,3.30
2023-05-19T21:43:19.596Z,3.38
2023-05-19T21:45:47.398Z,3.60
2023-05-19T21:48:15.174Z,2.90
2023-05-19T21:50:42.980Z,2.90
2023-05-19T21:53:12.165Z,3.63
2023-05-19T21:55:40.088Z,4.40
2023-05-19T21:58:08.065Z,3.70
2023-05-19T22:00:36.770Z,3.42
2023-05-19T22:03:05.276Z,2.87
2023-05-19T22:05:35.491Z,3.33
2023-05-19T22:08:03.662Z,3.70
2023-05-19T22:10:33.101Z,3.22
2023-05-19T22:13:01.273Z,3.20
2023-05-19T22:15:28.941Z,3.17
2023-05-19T22:17:56.792Z,3.27
2023-05-19T22:20:24.496Z,3.10
2023-05-19T22:22:52.234Z,3.20
2023-05-19T22:25:20.200Z,3.22
2023-05-19T22:27:49.212Z,3.25
2023-05-19T22:30:17.209Z,2.77
2023-05-19T22:32:45.012Z,2.75
2023-05-19T22:35:13.142Z,3.38
2023-05-19T22:37:41.057Z,3.00
2023-05-19T22:40:09.692Z,3.20
2023-05-19T22:45:07.593Z,3.20
2023-05-19T22:47:35.457Z,3.00
2023-05-19T22:50:03.499Z,3.28
2023-05-19T22:52:31.258Z,2.92
2023-05-19T22:54:59.068Z,2.90
2023-05-19T22:57:26.712Z,2.90
2023-05-19T22:59:54.407Z,3.37
2023-05-19T23:02:23.543Z,3.40
2023-05-19T23:04:51.189Z,3.23
2023-05-19T23:07:18.986Z,3.93
2023-05-19T23:09:46.704Z,3.58
2023-05-19T23:12:14.428Z,3.37
2023-05-19T23:14:42.182Z,2.95
2023-05-19T23:17:10.136Z,2.80
2023-05-19T23:19:39.227Z,3.53
2023-05-19T23:22:06.908Z,3.57
2023-05-19T23:24:34.730Z,3.40
2023-05-19T23:27:02.536Z,3.53
2023-05-19T23:29:30.398Z,3.45
2023-05-19T23:31:58.134Z,3.25
2023-05-19T23:34:25.857Z,3.42
2023-05-19T23:36:54.985Z,3.35
2023-05-19T23:39:25.180Z,3.50
2023-05-19T23:41:52.912Z,3.80
2023-05-19T23:44:20.605Z,3.17
2023-05-19T23:46:48.354Z,3.50
2023-05-19T23:49:16.176Z,3.63
2023-05-19T23:51:43.991Z,3.38
2023-05-19T23:54:13.116Z,3.22
2023-05-19T23:56:41.082Z,3.47
2023-05-19T23:59:08.765Z,3.50
